Date,TemperatureHighF,TemperatureAvgF,TemperatureLowF,DewpointHighF,DewpointAvgF,DewpointLowF,HumidityHigh,HumidityAvg,HumidityLow,PressureMaxIn,PressureMinIn,WindSpeedMaxMPH,WindSpeedAvgMPH,GustSpeedMaxMPH,PrecipitationSumIn
2012-1-1,66.0,53.9,33.8,55.2,45.6,32.5,95,76,44,30.13,29.83,16,1,16,0.00
2012-1-2,50.9,40.5,29.0,35.0,20.6,15.0,64,46,27,30.03,29.90,2,0,2,0.00
2012-1-3,37.2,27.4,17.8,16.0,9.8,4.8,72,48,29,30.33,30.02,2,0,2,0.00
2012-1-4,46.8,30.2,15.2,18.3,13.5,9.9,85,54,26,30.38,30.06,0,0,0,0.00
2012-1-5,56.9,39.5,25.7,29.5,24.1,15.5,86,56,33,30.11,30.02,0,0,0,0.00
2012-1-6,70.2,45.1,29.5,36.3,30.8,26.0,91,64,24,30.09,29.93,0,0,0,0.00
2012-1-7,74.8,51.2,34.0,48.0,39.6,30.3,89,68,38,30.04,29.90,1,0,1,0.00
2012-1-8,62.4,53.6,45.6,47.3,39.7,33.6,94,62,36,30.24,30.04,0,0,0,0.00
2012-1-9,45.6,43.3,42.2,44.0,42.0,40.9,95,95,94,30.24,30.05,0,0,0,0.00
2012-1-10,62.0,46.5,40.7,47.2,41.2,36.9,95,84,40,30.11,30.00,4,0,4,0.03
2012-1-11,58.2,48.7,41.5,56.5,46.4,39.8,94,92,82,30.00,29.50,16,0,16,0.30
2012-1-12,57.4,50.6,43.4,49.7,46.0,42.1,95,85,69,29.64,29.48,16,2,16,0.03
2012-1-13,53.6,37.6,29.1,47.4,21.7,17.1,82,53,41,30.04,29.48,28,4,28,0.00
2012-1-14,43.7,33.3,22.9,24.5,19.5,16.3,83,58,35,30.20,30.03,13,1,13,0.00
2012-1-15,39.9,31.6,27.8,28.7,24.7,21.5,92,76,54,30.41,30.10,16,1,16,0.00
2012-1-16,46.0,35.1,22.1,34.4,24.9,19.1,91,68,45,30.59,30.33,5,1,14,0.00
2012-1-17,63.5,54.7,43.2,54.5,48.3,34.4,93,79,65,30.32,29.80,16,4,23,0.12
2012-1-18,56.7,45.4,34.5,54.4,31.4,19.8,94,60,38,30.12,29.83,18,2,18,0.04
2012-1-19,47.1,36.1,25.0,31.3,23.0,16.6,74,60,43,30.22,30.03,12,1,12,0.00
2012-1-20,56.7,42.6,27.7,43.4,35.1,26.0,95,78,45,30.16,30.06,7,0,7,0.16
2012-1-21,53.4,47.7,34.7,52.0,46.1,31.8,95,94,89,30.18,29.83,11,1,12,0.34
2012-1-22,35.6,33.5,31.2,33.8,31.7,28.9,95,93,87,30.37,30.17,13,1,13,0.00
2012-1-23,51.4,40.6,34.6,50.0,39.3,33.2,95,95,95,30.32,30.01,9,0,9,0.06
2012-1-24,62.1,50.7,42.4,50.8,46.8,40.8,95,88,60,30.21,30.01,9,0,9,0.00
2012-1-25,62.6,45.7,34.3,41.8,36.6,33.0,95,75,36,30.32,30.18,8,0,8,0.01
2012-1-26,69.0,52.6,36.4,59.7,48.5,34.8,95,87,64,30.18,29.74,14,1,14,0.00
2012-1-27,65.6,59.5,41.3,61.2,50.0,34.1,94,72,43,30.00,29.57,22,3,22,0.57
2012-1-28,60.3,45.1,29.0,39.5,33.6,21.8,95,67,39,30.21,30.00,13,1,13,0.00
2012-1-29,52.0,41.0,27.1,22.8,16.4,7.0,81,40,18,30.36,30.21,12,1,12,0.00
2012-1-30,58.9,42.4,27.8,28.3,22.8,16.4,79,49,25,30.42,30.24,11,1,11,0.00
2012-1-31,67.6,51.2,35.6,34.1,29.1,24.6,69,45,25,30.36,30.21,10,2,13,0.00
2012-2-1,67.7,57.1,50.8,52.7,42.1,31.6,94,58,45,30.24,30.03,14,2,14,0.06
2012-2-2,68.1,57.1,42.9,53.6,44.6,30.8,94,67,33,30.29,29.96,18,2,18,0.01
2012-2-3,58.4,43.9,32.6,34.0,31.0,28.5,88,63,33,30.48,30.29,7,1,7,0.00
2012-2-4,53.9,44.6,33.0,47.8,40.1,28.6,94,85,53,30.36,30.03,11,1,11,0.12
2012-2-5,48.2,40.5,30.3,46.6,39.0,29.0,95,94,92,30.24,29.98,10,1,10,0.16
2012-2-6,47.5,38.4,30.3,37.1,33.4,29.0,95,83,56,30.30,30.12,6,0,6,0.00
2012-2-7,57.4,43.3,33.0,35.9,32.6,29.5,90,69,38,30.18,30.10,8,1,11,0.00
2012-2-8,49.4,37.5,28.4,40.0,33.1,26.9,95,85,67,30.19,30.09,9,1,9,0.01
2012-2-9,50.8,38.5,28.9,31.9,28.0,26.3,91,68,40,30.29,30.16,12,1,12,0.00
2012-2-10,47.9,38.1,26.0,38.5,32.9,24.4,95,82,66,30.21,29.87,8,1,8,0.00
2012-2-11,46.2,37.4,23.8,38.3,25.0,2.1,94,64,32,30.03,29.70,23,4,23,0.00
2012-2-12,40.6,29.6,20.7,14.9,8.2,1.9,57,41,28,30.25,30.02,18,4,21,0.00
2012-2-13,51.6,35.1,19.6,24.7,16.7,11.4,84,51,21,30.28,30.11,12,1,12,0.00
2012-2-14,55.1,46.2,36.0,42.3,31.7,19.5,74,57,45,30.12,29.98,18,2,18,0.00
2012-2-15,63.7,49.1,35.8,42.3,34.9,29.1,94,62,28,30.27,30.06,11,1,11,0.00
2012-2-16,56.2,47.9,39.9,51.0,42.2,31.0,94,81,59,30.26,29.99,10,1,10,0.43
2012-2-17,62.7,50.7,41.4,47.7,41.1,33.7,95,73,37,30.10,30.01,14,2,14,0.00
2012-2-18,64.6,51.6,36.6,44.0,35.4,26.1,84,57,28,30.11,29.94,10,1,10,0.00
2012-2-19,50.5,40.1,32.2,45.6,35.8,30.9,95,86,64,29.96,29.72,11,2,11,0.49
2012-2-20,48.4,36.4,28.0,34.6,30.6,26.5,95,81,48,30.35,29.90,12,2,12,0.33
2012-2-21,57.3,40.5,24.2,45.0,34.7,23.0,95,82,55,30.34,29.98,22,2,22,0.01
2012-2-22,68.3,52.6,35.4,49.1,42.4,34.1,95,72,35,29.98,29.55,19,2,19,0.00
2012-2-23,72.6,57.2,44.6,58.2,51.6,42.9,95,83,55,29.67,29.55,22,2,22,0.25
2012-2-24,76.5,65.2,47.0,64.3,55.6,24.5,93,72,41,29.81,29.41,23,5,23,0.45
2012-2-25,51.6,43.8,35.3,27.4,20.3,16.1,54,40,26,30.32,29.81,22,5,22,0.00
2012-2-26,53.1,37.8,24.0,25.0,19.9,15.9,83,52,25,30.50,30.31,9,1,9,0.00
2012-2-27,48.9,41.1,28.4,47.3,37.8,21.8,95,88,70,30.47,30.32,7,0,7,0.23
2012-2-28,66.2,51.3,38.6,46.6,39.1,32.5,95,68,29,30.42,30.28,8,1,8,0.01
2012-2-29,68.6,56.0,43.3,61.8,51.0,37.8,94,84,71,30.28,29.78,12,2,15,0.11
2012-3-1,78.5,65.9,51.4,62.1,50.8,33.7,94,64,22,29.85,29.68,18,3,18,0.07
2012-3-2,53.6,50.1,45.2,51.6,45.2,32.1,94,84,54,29.99,29.67,7,1,7,0.02
2012-3-3,59.7,54.9,47.3,58.3,51.0,42.9,95,87,61,29.74,29.52,11,1,11,1.10
2012-3-4,51.7,44.5,32.3,44.6,29.2,17.7,93,58,30,30.00,29.65,18,2,18,0.02
2012-3-5,49.9,39.8,26.9,33.8,23.5,16.5,87,55,31,30.49,29.89,25,4,25,0.00
2012-3-6,54.6,38.7,24.5,28.3,22.9,18.7,88,57,26,30.67,30.49,8,1,8,0.00
2012-3-7,68.2,50.3,28.9,50.4,39.7,25.9,93,70,44,30.65,30.43,19,2,19,0.00
2012-3-8,72.5,60.3,45.1,57.1,50.8,43.4,95,74,42,30.43,30.08,19,3,19,0.00
2012-3-9,61.2,53.9,39.6,57.3,42.7,27.6,94,69,33,30.29,30.03,15,2,15,0.25
2012-3-10,57.6,45.5,35.6,30.0,24.3,18.8,68,45,23,30.52,30.29,10,2,10,0.00
2012-3-11,64.4,45.7,28.0,32.2,27.0,23.7,91,54,23,30.58,30.42,10,1,10,0.00
2012-3-12,71.3,55.7,37.9,52.2,44.0,27.5,93,66,49,30.44,30.22,14,2,14,0.00
2012-3-13,78.1,65.5,57.6,60.5,56.3,50.6,90,74,47,30.22,30.06,12,2,12,0.00
2012-3-14,83.0,68.4,56.0,59.3,53.2,45.6,94,64,28,30.20,30.10,10,1,10,0.00
2012-3-15,83.0,66.9,51.9,57.2,52.1,47.4,93,63,30,30.24,30.13,11,1,11,0.00
2012-3-16,79.8,65.1,51.9,60.5,55.4,49.9,94,73,43,30.18,30.06,10,1,10,0.10
2012-3-17,79.5,66.2,54.3,63.3,58.4,52.6,95,78,48,30.25,30.13,7,1,7,0.35
2012-3-18,69.3,61.1,56.6,61.8,58.5,54.9,95,91,75,30.30,30.18,5,0,5,0.76
2012-3-19,80.3,62.9,51.3,63.7,57.3,49.6,95,84,52,30.25,30.08,8,0,8,0.02
2012-3-20,83.1,68.3,57.8,63.4,59.6,56.1,94,77,46,30.24,30.07,9,1,9,0.45
2012-3-21,78.3,66.1,55.7,65.0,59.8,54.0,95,82,52,30.28,30.15,8,1,8,0.01
2012-3-22,81.2,66.3,54.6,64.6,59.5,52.8,94,81,50,30.25,30.10,10,1,10,0.00
2012-3-23,84.4,69.4,55.4,65.4,60.0,53.7,94,75,43,30.12,29.92,12,1,12,0.00
2012-3-24,73.5,63.6,53.3,67.2,61.1,51.5,94,92,78,29.97,29.70,14,1,14,1.83
2012-3-25,63.4,58.1,53.5,58.6,55.3,51.8,95,90,81,29.78,29.68,12,1,13,0.20
2012-3-26,76.2,64.5,56.2,56.5,49.0,29.6,94,62,34,30.09,29.77,13,3,18,0.01
2012-3-27,66.3,50.5,40.3,33.5,24.7,16.0,74,39,18,30.34,30.09,8,1,8,0.00
2012-3-28,78.2,60.6,40.4,59.4,49.9,33.5,84,69,50,30.25,29.82,16,3,16,0.00
2012-3-29,82.7,69.3,55.4,58.7,47.1,34.8,86,51,20,29.90,29.79,13,2,13,0.00
2012-3-30,77.8,61.8,46.8,61.0,50.2,38.0,92,68,45,30.03,29.83,6,1,6,0.00
2012-3-31,76.6,65.8,59.3,63.8,59.9,56.5,94,82,53,29.84,29.66,7,1,8,0.00
2012-4-1,69.9,59.1,48.0,58.0,51.4,46.4,94,77,50,29.90,29.67,7,1,7,0.00
2012-4-2,75.9,65.7,48.7,60.9,50.9,38.9,81,62,28,29.92,29.60,10,2,10,0.00
2012-4-3,79.0,60.2,40.2,60.4,46.8,37.6,94,66,32,30.01,29.77,10,1,10,0.00
2012-4-4,85.7,68.4,57.9,66.4,60.2,55.6,94,78,41,29.79,29.59,13,1,13,0.00
2012-4-5,65.2,58.5,47.1,61.3,48.5,40.1,95,71,47,29.83,29.62,8,1,8,0.00
2012-4-6,63.2,50.5,38.8,44.9,39.1,29.0,95,70,29,30.08,29.80,13,1,13,0.00
2012-4-7,69.7,50.6,36.6,39.4,30.5,18.8,92,55,19,30.26,30.07,9,1,9,0.00
2012-4-8,76.7,57.9,37.1,45.0,36.0,24.3,90,51,20,30.13,29.88,11,1,11,0.00
2012-4-9,73.7,62.0,51.7,41.3,33.2,27.0,61,36,20,30.02,29.80,10,1,10,0.00
2012-4-10,73.9,60.5,42.3,44.8,35.3,22.8,85,43,23,29.92,29.72,15,2,15,0.00
2012-4-11,57.8,48.7,36.8,30.1,25.7,21.7,74,42,27,30.12,29.79,15,2,15,0.00
2012-4-12,64.1,47.6,35.6,37.6,30.3,26.7,87,55,25,30.22,30.11,10,1,10,0.00
2012-4-13,71.4,51.2,36.6,42.7,37.5,33.4,93,66,26,30.26,30.14,5,0,5,0.00
2012-4-14,76.2,58.6,39.4,52.5,41.9,37.0,92,59,29,30.31,30.14,12,1,12,0.00
2012-4-15,79.5,66.1,53.5,62.2,58.1,51.8,94,77,51,30.20,30.09,11,1,11,0.00
2012-4-16,84.7,70.9,58.7,61.9,59.3,56.1,92,70,42,30.16,30.03,11,1,11,0.00
2012-4-17,86.2,70.8,56.8,62.0,57.9,51.3,94,67,40,30.15,30.04,7,0,7,0.00
2012-4-18,65.9,58.0,53.4,54.2,52.0,48.7,94,81,64,30.15,30.03,10,1,10,0.00
2012-4-19,61.3,55.8,50.8,56.3,52.9,49.4,95,90,78,30.09,30.01,4,0,4,0.00
2012-4-20,74.5,60.9,50.1,60.5,55.8,48.7,95,84,60,30.02,29.84,5,0,5,0.00
2012-4-21,79.7,64.5,52.7,66.2,58.9,51.1,95,84,56,29.85,29.66,7,0,7,0.00
2012-4-22,60.0,53.5,46.8,58.3,52.0,45.5,95,95,94,29.71,29.45,8,1,8,0.00
2012-4-23,50.1,44.9,39.8,45.5,40.9,37.6,95,86,63,29.67,29.46,12,1,12,0.00
2012-4-24,63.5,49.1,34.7,39.9,32.5,23.6,94,59,24,29.79,29.66,14,1,14,0.00
2012-4-25,68.1,53.8,39.3,52.8,46.2,36.8,94,77,51,29.96,29.79,8,1,8,0.00
2012-4-26,78.0,62.4,53.0,64.7,58.2,51.0,95,87,59,29.88,29.72,9,1,9,0.00
2012-4-27,77.2,65.3,53.4,62.9,55.1,48.1,95,72,38,30.08,29.79,10,0,10,0.00
2012-4-28,59.1,55.4,50.7,49.9,48.3,46.0,90,77,65,30.19,30.06,6,0,6,0.00
2012-4-29,80.8,64.2,50.9,63.6,56.8,48.8,93,79,53,30.19,30.08,4,0,4,0.00
2012-4-30,80.5,67.3,58.7,68.8,62.7,57.0,94,86,61,30.23,30.07,2,0,4,0.00
2012-5-1,86.6,73.5,64.2,72.2,66.4,62.4,94,80,57,30.12,29.98,8,1,8,0.00
2012-5-2,92.4,75.9,63.9,71.9,67.4,62.1,94,78,46,30.09,30.00,6,0,6,0.00
2012-5-3,93.8,76.1,62.2,71.4,66.9,60.5,94,77,41,30.09,30.00,5,0,5,0.00
2012-5-4,90.0,74.3,59.7,72.7,65.3,58.0,95,76,43,30.02,29.86,7,0,7,0.00
2012-5-5,86.5,72.6,65.7,72.8,66.4,61.9,94,82,60,29.87,29.75,5,0,5,0.00
2012-5-6,75.4,67.2,59.2,67.9,64.2,57.5,94,90,72,30.02,29.86,6,0,6,0.00
2012-5-7,81.3,66.8,58.1,64.7,60.6,56.4,95,82,53,30.05,29.94,4,0,4,0.00
2012-5-8,78.5,68.8,58.4,66.5,62.5,56.7,94,81,64,30.00,29.81,5,0,5,0.00
2012-5-9,74.8,65.8,57.0,68.7,62.5,55.3,94,89,75,29.85,29.65,16,0,21,0.00
2012-5-10,70.9,59.2,49.9,55.3,51.6,48.2,95,78,45,29.95,29.68,8,1,8,0.00
2012-5-11,75.5,58.4,44.0,51.1,45.5,39.4,94,68,29,30.22,29.95,5,0,5,0.00
2012-5-12,77.2,60.5,43.6,60.4,50.2,42.3,95,73,35,30.33,30.21,4,0,4,0.00
2012-5-13,73.7,62.9,51.8,63.7,58.9,50.1,94,87,67,30.25,30.12,5,0,5,0.00
2012-5-14,70.5,64.8,61.1,66.5,62.7,59.1,94,93,84,30.12,29.92,7,0,7,0.00
2012-5-15,82.3,70.3,62.4,71.5,65.3,60.3,94,85,59,29.98,29.88,7,0,7,0.00
2012-5-16,83.4,71.4,64.0,71.6,65.8,61.9,94,84,53,29.94,29.84,4,0,4,0.00
2012-5-17,80.9,69.5,59.8,69.7,64.2,57.8,94,84,63,30.02,29.88,9,0,9,0.00
2012-5-18,75.1,66.1,57.4,63.0,54.9,48.6,91,70,41,30.08,30.01,7,1,7,0.00
2012-5-19,77.5,63.8,52.5,59.0,52.0,47.3,91,68,38,30.14,30.04,6,0,6,0.00
2012-5-20,81.7,67.0,51.4,63.3,56.1,49.7,94,71,39,30.11,30.01,8,1,8,0.00
2012-5-21,85.0,71.2,63.9,68.2,64.3,61.2,93,80,51,30.02,29.83,5,0,5,0.00
2012-5-22,85.9,70.7,62.4,70.7,64.9,60.6,94,83,56,29.87,29.75,5,0,5,0.00
2012-5-23,82.5,68.0,59.5,69.9,63.7,57.8,94,87,62,29.94,29.77,5,0,5,1.60
2012-5-24,88.5,70.4,58.2,72.9,64.9,56.5,94,84,52,30.03,29.92,4,0,4,0.00
2012-5-25,89.2,73.3,60.2,73.3,66.3,58.2,94,81,51,30.11,30.02,4,0,4,0.00
2012-5-26,88.5,74.5,64.8,71.7,66.9,62.7,94,80,52,30.13,30.05,5,0,5,0.00
2012-5-27,87.0,73.2,62.7,73.8,68.0,60.7,94,85,61,30.13,30.03,2,0,2,0.00
2012-5-28,90.9,76.0,68.1,73.8,69.5,66.0,94,82,53,30.07,29.95,4,0,4,0.00
2012-5-29,87.0,74.3,67.7,75.8,69.7,65.6,94,87,59,29.99,29.80,4,0,4,0.21
2012-5-30,83.3,72.1,62.6,71.7,66.7,59.8,94,85,47,29.83,29.70,6,0,6,0.15
2012-5-31,92.9,74.6,60.9,71.3,64.2,59.2,94,74,39,29.89,29.77,5,0,8,0.00
2012-6-1,87.2,71.4,62.8,72.8,66.8,61.0,94,87,57,29.87,29.65,9,0,9,0.34
2012-6-2,73.6,63.2,53.0,62.2,55.4,51.3,95,78,49,29.89,29.75,7,0,7,0.00
2012-6-3,80.3,65.2,50.1,61.2,55.0,48.7,95,73,47,29.93,29.78,9,0,9,0.00
2012-6-4,83.0,70.9,60.2,65.2,59.8,54.8,92,70,42,29.79,29.63,7,1,7,0.00
2012-6-5,77.4,66.3,57.2,59.9,57.2,53.7,94,74,45,29.92,29.70,5,0,5,0.01
2012-6-6,73.0,61.3,54.2,61.1,56.6,52.5,95,85,59,30.00,29.88,6,0,6,0.30
2012-6-7,81.9,64.8,52.3,62.4,57.0,50.6,94,79,44,30.04,29.96,4,0,4,0.00
2012-6-8,85.5,68.1,53.7,62.0,56.8,52.0,95,72,34,30.04,29.95,8,0,8,0.00
2012-6-9,89.5,71.6,56.0,67.9,59.6,54.1,94,70,34,30.06,29.97,7,0,7,0.00
2012-6-10,87.8,73.9,60.8,70.2,63.7,58.0,94,73,39,30.13,30.03,5,0,5,0.00
2012-6-11,86.0,72.3,65.6,74.7,68.7,63.2,94,89,68,30.13,30.01,4,0,4,0.31
2012-6-12,84.8,73.4,68.9,76.5,70.5,66.8,94,91,73,30.01,29.82,4,0,4,0.07
2012-6-13,85.5,73.8,62.1,71.6,66.6,55.9,94,80,56,30.00,29.84,4,0,6,0.02
2012-6-14,79.7,67.9,56.8,67.7,61.0,52.6,93,79,65,30.15,30.00,5,0,5,0.00
2012-6-15,80.4,68.2,57.8,64.7,60.0,56.1,95,77,53,30.21,30.12,8,1,8,0.00
2012-6-16,82.2,66.6,52.2,62.5,56.3,50.8,95,73,41,30.26,30.13,7,0,7,0.00
2012-6-17,81.8,66.0,52.2,64.1,57.8,50.8,95,78,49,30.18,30.00,5,0,5,0.00
2012-6-18,86.2,71.5,57.9,70.7,64.1,56.1,94,79,54,30.08,30.00,6,0,6,0.00
2012-6-19,91.5,75.9,65.0,76.9,68.3,63.2,94,79,51,30.13,30.06,6,0,6,0.00
2012-6-20,95.7,78.6,66.0,76.2,70.3,64.2,94,79,43,30.13,30.02,0,0,0,0.01
2012-6-21,95.5,80.2,68.0,77.2,72.1,66.2,94,78,48,30.03,29.85,4,0,4,0.00
2012-6-22,95.5,77.8,68.6,75.9,70.3,66.5,94,80,46,29.89,29.75,8,0,8,2.19
2012-6-23,89.6,75.7,66.9,75.2,70.3,65.1,94,85,58,29.98,29.84,2,0,2,0.01
2012-6-24,92.1,78.0,66.6,74.9,68.9,64.3,94,76,42,29.99,29.86,5,0,5,0.00
2012-6-25,93.5,80.0,70.9,75.6,71.1,66.8,94,76,45,29.89,29.64,6,0,6,0.00
2012-6-26,81.1,70.4,57.6,68.5,53.6,47.0,87,58,35,29.88,29.74,9,1,9,0.00
2012-6-27,87.7,69.0,53.2,63.7,55.8,51.5,94,68,32,29.97,29.86,6,0,6,0.00
2012-6-28,95.3,75.6,56.6,65.5,59.9,54.8,94,64,28,29.98,29.83,7,0,7,0.00
2012-6-29,103.2,84.8,66.4,80.9,70.3,62.7,89,65,38,29.87,29.70,11,0,11,0.00
2012-6-30,103.3,83.9,66.3,76.6,69.2,61.5,93,65,33,29.88,29.77,11,0,11,0.01
2012-7-1,99.8,81.9,67.8,79.8,70.5,62.0,94,72,34,29.94,29.80,13,0,13,0.01
2012-7-2,94.1,80.8,70.0,76.3,68.3,63.8,87,68,40,29.97,29.90,13,1,13,0.00
2012-7-3,98.9,82.3,69.1,73.8,69.9,66.0,93,70,35,29.98,29.85,4,0,4,0.00
2012-7-4,99.2,81.2,70.1,75.7,70.5,66.6,94,73,39,29.94,29.85,6,0,6,0.00
2012-7-5,99.4,79.9,70.0,81.2,72.1,64.5,94,79,39,29.90,29.80,10,0,10,0.03
2012-7-6,100.7,80.0,69.9,78.6,71.1,66.8,94,77,42,29.93,29.84,11,0,11,0.05
2012-7-7,99.8,83.1,69.2,78.3,72.0,67.4,94,73,39,29.95,29.85,8,0,8,0.01
2012-7-8,103.0,85.9,74.1,77.0,72.6,67.8,89,67,34,29.92,29.76,8,0,8,0.00
2012-7-9,96.3,81.4,72.3,77.9,72.8,69.8,94,77,51,29.94,29.80,9,0,9,1.27
2012-7-10,85.5,75.7,71.5,76.8,72.8,69.6,94,91,69,30.01,29.89,2,0,3,0.20
2012-7-11,79.1,70.2,64.6,75.1,68.3,62.8,95,93,84,30.11,29.99,5,0,5,1.30
2012-7-12,81.9,72.9,64.7,74.0,68.6,62.9,94,87,69,30.15,30.09,4,0,4,0.00
2012-7-13,87.8,76.5,69.0,76.6,72.2,67.2,94,87,67,30.17,30.09,4,0,4,0.20
2012-7-14,89.3,78.0,71.6,79.6,73.5,69.5,94,87,66,30.19,30.07,2,0,2,0.10
2012-7-15,92.5,79.9,69.3,77.0,73.0,67.2,94,81,55,30.17,30.01,5,0,5,0.00
2012-7-16,93.8,80.2,72.1,77.2,73.1,70.3,94,81,50,30.06,29.87,5,0,5,0.01
2012-7-17,95.0,81.1,69.8,81.1,74.0,67.7,94,81,45,29.93,29.83,2,0,2,0.00
2012-7-18,95.0,82.7,71.6,79.4,74.6,69.5,94,78,55,29.94,29.84,6,0,6,0.00
2012-7-19,94.3,81.0,72.6,75.9,72.7,70.4,93,77,51,29.97,29.87,8,0,8,0.00
2012-7-20,92.5,78.2,72.1,77.7,73.0,70.2,94,85,58,29.92,29.83,7,0,7,0.22
2012-7-21,88.7,76.3,70.7,78.7,72.5,68.6,94,88,65,30.08,29.90,8,0,8,1.41
2012-7-22,86.6,75.9,70.7,78.2,72.8,68.6,94,90,72,30.16,30.03,2,0,2,0.12
2012-7-23,94.3,79.0,70.7,80.7,73.0,68.6,94,83,52,30.13,29.97,13,0,13,0.75
2012-7-24,93.2,79.0,71.2,79.6,72.5,68.7,94,81,63,29.99,29.79,11,1,20,0.01
2012-7-25,89.0,78.2,68.8,76.0,70.7,66.4,93,79,57,29.94,29.84,3,0,3,0.00
2012-7-26,97.0,83.0,71.1,79.6,74.8,69.2,94,79,48,29.88,29.73,8,0,8,0.00
2012-7-27,97.3,82.1,73.5,79.4,74.7,71.3,94,80,51,29.90,29.78,9,0,9,0.31
2012-7-28,96.0,79.2,69.8,79.7,72.8,67.7,94,83,49,29.98,29.84,15,0,15,1.11
2012-7-29,91.5,76.8,67.4,75.7,69.8,65.3,94,81,48,29.98,29.89,3,0,3,0.01
2012-7-30,91.6,76.0,68.3,75.8,70.2,66.2,94,84,55,30.00,29.90,5,0,5,0.00
2012-7-31,88.4,75.0,67.7,75.6,70.3,65.9,94,86,60,29.97,29.85,2,0,4,0.00
2012-8-1,91.7,78.1,69.2,77.2,71.5,67.1,94,82,56,29.90,29.78,5,0,5,0.00
2012-8-2,93.8,78.1,69.3,76.7,70.5,67.2,94,79,51,29.92,29.81,6,0,6,0.00
2012-8-3,93.3,78.3,65.6,76.1,70.7,63.8,94,79,51,30.05,29.90,5,0,5,0.00
2012-8-4,92.0,79.8,70.7,76.1,72.9,68.9,94,81,56,30.16,30.03,5,0,5,0.00
2012-8-5,90.3,78.2,70.7,78.0,73.3,68.7,94,86,61,30.20,30.06,7,0,7,0.06
2012-8-6,92.0,79.1,72.5,76.7,73.0,70.7,94,83,52,30.10,29.96,5,0,5,0.05
2012-8-7,82.7,74.8,71.3,77.8,72.5,69.2,94,92,80,30.02,29.93,3,0,3,0.25
2012-8-8,88.0,75.4,68.3,77.1,71.7,66.5,94,88,66,29.97,29.86,12,0,12,0.00
2012-8-9,88.0,75.5,64.9,77.1,70.9,62.8,94,87,67,29.97,29.83,4,0,4,0.00
2012-8-10,80.9,74.2,69.5,75.8,71.3,67.4,94,91,81,29.87,29.77,6,0,6,0.80
2012-8-11,83.5,74.4,69.5,76.5,71.8,67.7,94,92,76,29.92,29.81,10,0,10,2.27
2012-8-12,87.5,74.5,66.9,73.0,68.1,64.8,93,82,55,29.99,29.90,4,0,4,0.00
2012-8-13,90.0,74.3,62.4,74.4,67.1,60.0,94,80,48,30.02,29.91,4,0,4,0.01
2012-8-14,90.0,75.3,62.3,74.6,67.8,60.2,94,80,53,29.93,29.82,5,0,5,0.00
2012-8-15,87.3,75.5,67.5,76.1,70.5,65.4,94,85,62,29.91,29.83,4,0,4,0.00
2012-8-16,88.4,75.0,66.5,71.9,67.8,64.7,94,80,48,30.00,29.90,4,0,4,0.00
2012-8-17,89.8,74.5,61.6,74.2,67.2,59.7,94,80,52,29.97,29.79,7,0,7,0.01
2012-8-18,85.4,73.8,66.0,73.1,68.4,64.2,94,84,60,29.89,29.80,5,0,5,0.00
2012-8-19,70.7,68.9,66.9,68.9,67.0,64.8,94,94,93,29.89,29.81,5,0,5,1.56
2012-8-20,79.0,70.1,65.9,72.3,67.0,63.8,94,90,75,29.95,29.82,2,0,2,0.15
2012-8-21,83.8,71.2,65.2,72.9,66.9,63.1,94,87,62,30.04,29.94,4,0,4,0.03
2012-8-22,79.0,71.1,65.4,73.3,68.3,63.3,94,91,77,30.10,30.02,5,0,5,0.00
2012-8-23,84.9,73.3,66.0,71.6,67.5,63.9,94,83,56,30.13,30.05,6,0,6,0.00
2012-8-24,77.6,70.2,63.9,70.4,66.2,61.9,94,88,69,30.13,30.07,2,0,2,0.00
2012-8-25,71.0,66.6,61.0,65.1,63.1,59.1,95,89,79,30.11,30.06,8,1,8,0.10
2012-8-26,82.4,71.0,62.9,73.5,66.7,61.5,95,87,66,30.17,30.07,4,0,4,0.00
2012-8-27,89.8,75.4,65.1,77.2,70.3,63.3,94,85,61,30.13,29.97,4,0,4,0.00
2012-8-28,88.4,77.5,71.3,78.9,73.3,69.4,94,87,67,30.00,29.86,6,0,6,0.14
2012-8-29,87.3,75.2,67.2,74.6,70.2,65.4,94,86,55,29.98,29.88,4,0,4,0.00
2012-8-30,89.8,75.1,64.0,75.7,68.9,62.1,94,83,47,30.12,29.97,4,0,4,0.00
2012-8-31,92.7,79.0,69.9,78.2,73.4,68.1,94,84,58,30.18,30.03,6,0,6,0.00
2012-9-1,92.4,80.9,73.2,78.4,74.6,71.4,94,83,55,30.09,29.99,7,0,7,0.00
2012-9-2,90.8,78.2,70.2,79.6,73.7,68.4,95,87,64,30.03,29.88,10,0,10,1.40
2012-9-3,88.5,74.0,70.3,79.6,71.4,68.2,95,92,73,30.02,29.92,7,0,7,1.01
2012-9-4,87.2,76.5,70.9,77.5,72.1,68.8,94,87,62,30.00,29.88,5,0,5,0.08
2012-9-5,85.5,76.6,71.3,75.8,72.5,69.5,94,88,70,29.91,29.81,8,0,8,0.00
2012-9-6,87.7,74.7,69.6,78.0,71.8,67.4,95,91,70,29.93,29.83,9,0,9,2.21
2012-9-7,86.3,74.4,69.3,75.7,70.3,67.2,94,88,64,29.96,29.83,4,0,4,0.00
2012-9-8,88.6,72.9,66.1,78.1,69.3,64.0,95,89,67,29.84,29.66,12,0,12,0.64
2012-9-9,78.5,66.8,57.1,67.2,60.5,54.9,95,82,48,29.96,29.79,9,0,9,0.02
2012-9-10,78.8,63.8,54.0,62.9,56.8,52.4,95,80,49,30.15,29.96,5,0,5,0.00
2012-9-11,77.8,62.6,51.7,64.5,55.8,50.3,95,81,47,30.30,30.15,4,0,4,0.00
2012-9-12,80.2,63.0,51.4,62.7,56.4,50.0,95,82,48,30.36,30.26,5,0,5,0.01
2012-9-13,79.7,63.4,51.0,63.0,56.9,49.6,95,82,44,30.35,30.23,5,0,5,0.00
2012-9-14,81.0,67.5,59.2,71.2,63.5,57.5,95,88,66,30.25,30.12,2,0,2,0.01
2012-9-15,79.8,67.2,58.1,68.6,62.4,56.4,95,86,66,30.17,30.08,6,0,6,0.00
2012-9-16,63.3,60.2,58.5,61.2,58.7,57.1,95,95,92,30.17,30.07,2,0,2,0.46
2012-9-17,77.0,66.8,58.6,73.1,64.8,57.0,95,93,87,30.10,29.91,0,0,0,0.07
2012-9-18,75.5,70.7,66.8,74.0,69.0,65.0,95,94,93,29.91,29.68,9,1,9,2.59
2012-9-19,71.8,64.1,54.5,65.8,59.8,53.1,95,86,63,30.12,29.80,6,0,6,0.05
2012-9-20,76.3,61.6,52.0,64.7,56.8,50.6,95,86,58,30.16,30.04,4,0,4,0.01
2012-9-21,81.3,65.0,53.3,68.4,60.2,51.9,95,86,57,30.08,29.96,7,0,7,0.00
2012-9-22,84.0,70.0,59.9,70.6,64.7,58.3,95,85,59,29.98,29.85,8,0,8,0.11
2012-9-23,73.8,62.2,49.6,65.7,52.8,42.0,96,75,34,30.12,29.94,7,0,7,0.01
2012-9-24,71.2,56.6,48.1,55.0,48.9,44.1,96,78,43,30.22,30.11,4,0,4,0.00
2012-9-25,75.1,58.8,44.4,64.3,53.6,43.3,96,85,54,30.24,30.12,6,0,6,0.00
2012-9-26,81.8,65.3,52.9,68.2,60.1,51.5,95,85,58,30.20,30.12,5,0,5,0.00
2012-9-27,84.4,66.9,55.1,68.7,60.7,53.7,95,83,46,30.17,30.06,4,0,4,0.01
2012-9-28,82.9,67.0,55.7,71.8,62.7,54.3,95,87,59,30.07,29.96,5,0,5,0.06
2012-9-29,65.7,62.1,59.0,63.9,60.5,57.3,95,95,94,29.98,29.87,4,0,4,0.94
2012-9-30,71.2,61.4,56.3,63.5,57.9,54.6,95,89,66,29.91,29.83,2,0,3,0.01
2012-10-1,61.9,60.0,57.4,60.4,58.5,56.0,95,95,94,29.92,29.85,2,0,2,0.10
2012-10-2,84.2,72.2,61.5,78.6,69.6,60.1,95,92,80,29.93,29.80,5,0,5,0.65
2012-10-3,83.3,75.4,71.1,75.3,71.6,69.0,94,89,68,30.13,29.93,5,0,5,0.00
2012-10-4,77.0,68.9,61.3,69.1,65.2,59.9,95,89,69,30.19,30.11,8,0,8,0.00
2012-10-5,80.1,65.4,55.4,64.9,59.2,54.0,95,83,48,30.16,30.00,4,0,4,0.01
2012-10-6,81.3,67.0,56.5,68.3,60.6,55.1,95,81,53,30.00,29.85,6,0,6,0.01
2012-10-7,62.4,51.9,48.3,56.4,50.4,47.2,96,95,82,30.13,29.95,7,1,7,1.21
2012-10-8,49.9,48.0,45.4,48.8,46.6,44.3,96,95,86,30.23,30.13,6,0,6,0.20
2012-10-9,56.4,50.5,45.8,54.5,49.1,44.7,96,95,90,30.16,30.07,5,0,5,0.02
2012-10-10,69.8,58.1,51.0,58.6,53.4,49.7,96,86,59,30.10,29.96,8,0,8,0.00
2012-10-11,66.4,53.3,45.1,51.0,45.4,41.0,96,77,46,30.29,30.10,6,0,6,0.00
2012-10-12,71.3,53.9,41.5,53.6,46.9,40.5,96,81,42,30.34,30.16,6,0,6,0.00
2012-10-13,65.5,51.6,41.3,52.2,44.7,38.3,96,79,52,30.46,30.33,5,0,5,0.00
2012-10-14,73.4,56.5,41.9,63.8,52.7,40.8,96,88,64,30.33,30.00,6,0,6,0.00
2012-10-15,68.9,62.6,55.3,67.1,60.6,48.0,95,93,75,30.01,29.68,6,0,6,0.40
2012-10-16,68.0,54.5,44.9,52.7,46.4,43.0,96,76,46,29.94,29.83,8,1,8,0.00
2012-10-17,70.8,54.0,43.7,55.1,48.2,42.6,96,83,46,29.99,29.90,5,0,5,0.00
2012-10-18,75.0,57.9,43.4,67.4,55.3,42.2,96,92,74,29.92,29.76,5,0,5,0.09
2012-10-19,74.3,62.9,46.8,63.9,54.6,36.6,95,78,31,29.76,29.65,10,1,10,0.18
2012-10-20,68.8,54.0,41.6,52.3,45.6,40.4,96,76,44,29.94,29.73,7,0,7,0.00
2012-10-21,65.4,51.9,42.2,49.2,43.8,40.3,96,76,45,30.14,29.94,7,0,7,0.00
2012-10-22,73.3,53.4,40.1,54.4,46.0,39.0,96,80,39,30.22,30.12,5,0,5,0.00
2012-10-23,79.0,58.9,45.2,58.5,51.7,44.1,96,81,42,30.17,30.07,5,0,5,0.00
2012-10-24,82.0,63.0,50.3,60.3,54.5,48.6,96,77,42,30.17,30.06,5,0,5,0.00
2012-10-25,79.3,61.7,49.4,64.4,56.1,48.3,96,84,51,30.15,30.07,4,0,4,0.00
2012-10-26,69.4,61.2,54.5,64.2,58.9,53.1,96,92,82,30.11,29.92,8,0,8,0.01
2012-10-27,65.8,62.9,60.4,61.8,58.6,55.1,95,86,75,29.92,29.69,10,2,10,0.00
2012-10-28,63.5,58.6,52.2,55.3,51.0,48.8,91,76,62,29.70,29.55,13,3,13,0.00
2012-10-29,52.3,44.9,40.5,48.9,41.2,37.7,95,87,70,29.58,29.27,15,4,15,0.49
2012-10-30,49.7,45.1,41.2,38.0,34.2,31.8,88,66,53,29.58,29.24,18,3,18,0.03
2012-10-31,53.1,45.0,35.9,38.3,36.0,33.3,91,72,54,29.75,29.57,10,1,12,0.00
2012-11-1,55.8,46.8,34.7,38.7,36.7,33.2,94,69,49,29.84,29.73,10,2,10,0.00
2012-11-2,60.4,45.7,34.3,40.5,35.9,30.1,96,71,39,29.96,29.81,11,1,11,0.00
2012-11-3,59.4,45.3,35.3,39.2,34.5,31.5,89,68,37,30.09,29.96,11,1,11,0.00
2012-11-4,54.9,46.1,40.1,43.2,40.3,36.8,94,81,59,30.09,29.96,5,0,5,0.03
2012-11-5,54.7,43.2,34.7,42.3,35.4,32.6,93,76,44,30.10,29.99,8,1,8,0.00
2012-11-6,44.3,38.1,32.9,34.8,32.4,31.1,94,80,62,30.14,29.92,7,1,7,0.00
2012-11-7,51.9,42.5,34.9,35.8,33.5,31.5,92,71,52,29.93,29.82,8,1,8,0.00
2012-11-8,61.1,45.9,32.1,35.1,26.5,13.7,96,54,16,30.10,29.93,13,1,13,0.00
2012-11-9,63.2,48.2,38.3,37.7,31.6,24.0,87,55,32,30.24,30.10,9,1,9,0.00
2012-11-10,73.3,49.6,33.3,43.8,36.3,32.0,96,67,24,30.37,30.23,7,0,7,0.00
2012-11-11,72.9,53.3,35.8,52.5,44.6,34.2,96,76,41,30.46,30.36,8,1,8,0.00
2012-11-12,71.5,58.3,46.7,61.4,55.0,45.6,96,90,67,30.41,30.15,8,0,8,0.00
2012-11-13,62.8,47.7,37.2,61.0,46.2,36.2,96,94,89,30.40,30.12,12,2,12,0.14
2012-11-14,48.9,39.8,32.0,36.2,32.8,28.4,96,77,57,30.49,30.37,9,1,9,0.00
2012-11-15,46.1,40.6,35.1,42.0,36.6,30.5,96,86,72,30.38,30.24,8,1,8,0.18
2012-11-16,54.2,44.0,37.1,41.4,38.1,34.3,96,81,53,30.38,30.25,9,1,9,0.00
2012-11-17,55.8,44.2,34.0,36.1,31.6,26.3,91,65,33,30.48,30.38,12,2,12,0.00
2012-11-18,55.1,49.2,43.0,45.9,42.9,36.1,89,79,70,30.46,30.34,13,3,13,0.00
2012-11-19,57.7,50.2,43.1,47.9,44.1,40.9,92,80,69,30.34,30.16,13,2,13,0.00
2012-11-20,58.6,47.3,39.4,48.7,42.9,37.9,96,86,64,30.17,30.04,7,1,7,0.00
2012-11-21,59.3,45.3,37.7,45.3,38.2,33.6,96,79,44,30.18,30.08,13,2,13,0.00
2012-11-22,60.1,44.0,34.0,35.2,30.8,25.4,91,64,28,30.24,30.14,11,1,11,0.00
2012-11-23,65.3,47.7,29.4,41.8,34.5,26.6,92,64,38,30.16,29.87,11,1,11,0.00
2012-11-24,52.2,42.1,26.2,33.6,24.4,18.0,72,50,34,30.12,29.88,16,3,16,0.00
2012-11-25,51.2,34.6,20.4,24.8,21.6,17.6,89,62,32,30.17,30.01,13,1,13,0.00
2012-11-26,65.2,45.0,28.7,34.8,27.9,23.7,87,57,24,30.19,30.07,10,1,10,0.00
2012-11-27,56.5,45.1,36.4,44.7,37.9,29.4,94,77,47,30.23,30.09,7,1,7,0.00
2012-11-28,51.9,39.5,29.4,37.6,32.6,26.3,96,79,44,30.39,30.23,9,1,9,0.00
2012-11-29,54.0,36.8,24.8,32.3,27.6,22.6,92,73,38,30.48,30.36,7,1,7,0.00
2012-11-30,60.7,43.2,30.5,38.5,33.9,28.0,95,73,39,30.40,30.28,10,1,10,0.00
2012-12-1,64.1,46.0,32.2,47.0,38.5,30.8,96,78,42,30.39,30.31,7,0,7,0.00
2012-12-2,67.4,51.1,36.8,53.7,45.6,35.3,96,83,58,30.38,30.22,11,1,11,0.00
2012-12-3,74.8,62.1,54.8,56.5,54.6,52.2,95,78,52,30.27,30.18,7,1,7,0.00
2012-12-4,70.9,57.8,45.0,56.8,52.3,43.9,96,83,59,30.28,30.14,11,1,11,0.00
2012-12-5,62.5,55.4,38.4,58.1,52.7,37.4,96,91,82,30.19,30.08,7,1,7,0.13
2012-12-6,50.7,43.3,36.5,39.3,35.1,31.9,96,74,53,30.33,30.18,8,1,8,0.00
2012-12-7,49.9,46.6,42.7,48.6,43.5,36.2,96,89,72,30.21,29.99,4,0,4,0.35
2012-12-8,64.6,53.5,48.4,57.3,51.1,47.3,96,92,76,30.03,29.94,8,1,8,0.00
2012-12-9,70.1,57.7,46.2,62.0,55.0,45.0,96,91,71,30.11,29.96,6,0,6,0.06
2012-12-10,68.8,64.2,59.7,62.1,60.2,58.1,96,87,75,29.96,29.65,16,2,16,0.00
2012-12-11,64.8,54.2,45.1,59.4,43.2,33.6,91,67,52,30.13,29.67,16,3,16,0.00
2012-12-12,45.2,43.0,37.9,37.6,34.4,31.8,94,72,61,30.33,30.13,10,2,10,0.20
2012-12-13,50.9,39.8,31.0,37.8,33.6,28.7,95,80,57,30.39,30.26,11,2,11,0.14
2012-12-14,58.7,37.9,25.8,38.7,29.6,24.7,96,76,34,30.37,30.23,7,0,7,0.01
2012-12-15,57.0,42.9,31.1,40.6,33.9,28.5,93,73,38,30.26,30.08,6,0,6,0.00
2012-12-16,58.2,52.1,46.5,54.7,49.1,39.1,96,90,70,30.08,29.88,10,1,10,0.08
2012-12-17,59.6,56.4,52.7,56.5,54.4,51.6,96,93,88,29.88,29.61,14,2,14,0.29
2012-12-18,59.6,52.2,34.9,56.0,44.4,31.2,96,77,46,29.88,29.61,21,2,21,0.01
2012-12-19,63.7,44.3,29.7,39.8,34.8,28.5,96,74,36,30.11,29.86,11,1,11,0.00
2012-12-20,61.6,47.9,36.8,60.2,43.8,35.1,96,86,71,30.15,29.43,19,2,19,0.45
2012-12-21,56.6,42.1,36.6,51.2,28.8,22.0,83,59,45,29.80,29.46,24,6,24,0.00
2012-12-22,49.7,38.9,34.4,25.7,22.2,18.6,63,52,33,30.09,29.80,15,3,15,0.00
2012-12-23,55.3,41.0,24.3,30.9,22.6,17.9,87,52,25,30.13,30.00,13,1,13,0.00
2012-12-24,48.8,45.0,40.1,46.6,39.0,29.7,94,80,56,30.02,29.87,10,1,10,0.03
2012-12-25,58.6,49.6,44.1,46.7,44.2,41.6,95,83,55,30.09,29.90,7,1,7,0.00
2012-12-26,47.5,41.3,36.7,43.5,39.6,35.7,96,94,81,30.06,29.43,13,3,13,1.56
2012-12-27,48.1,39.4,32.6,35.9,31.2,25.9,95,73,53,30.07,29.61,14,3,14,0.01
2012-12-28,43.4,34.4,25.1,31.9,27.7,23.0,93,77,58,30.19,30.00,7,0,7,0.00
2012-12-29,50.4,41.3,35.0,42.7,35.0,27.9,96,80,59,30.01,29.64,19,2,19,0.35
2012-12-30,45.2,36.5,28.0,28.5,22.6,19.6,81,58,36,30.38,29.94,13,2,13,0.00
2012-12-31,52.1,39.3,23.8,29.5,25.3,20.3,90,61,34,30.36,30.08,12,1,14,0.00
2013-1-1,48.9,45.7,42.1,47.8,40.0,28.7,96,82,50,30.09,29.91,11,1,11,0.23